sensor_id;sensor_type;location;lat;lon;timestamp;P1;durP1;ratioP1;P2;durP2;ratioP2
22308;SDS011;11322;50.858;-1.778;2023-02-28T00:00:34;3.1;;;1.95;;
22308;SDS011;11322;50.858;-1.778;2023-02-28T00:05:34;1.45;;;0.95;;
22308;SDS011;11322;50.858;-1.778;2023-02-28T00:10:34;4.0;;;1.0;;
22308;SDS011;11322;50.858;-1.778;2023-02-28T00:15:34;3.1;;;0.8;;
22308;SDS011;11322;50.858;-1.778;2023-02-28T00:20:34;1.25;;;1.15;;
22308;SDS011;11322;50.858;-1.778;2023-02-28T00:25:34;3.4;;;1.9;;
22308;SDS011;11322;50.858;-1.778;2023-02-28T00:30:34;2.85;;;1.2;;
22308;SDS011;11322;50.858;-1.778;2023-02-28T00:35:34;2.5;;;1.2;;
22308;SDS011;11322;50.858;-1.778;2023-02-28T00:40:34;2.65;;;1.3;;
22308;SDS011;11322;50.858;-1.778;2023-02-28T00:45:34;2.75;;;1.95;;
22308;SDS011;11322;50.858;-1.778;2023-02-28T00:50:34;1.6;;;1.35;;
22308;SDS011;11322;50.858;-1.778;2023-02-28T00:55:34;2.35;;;0.7;;
22308;SDS011;11322;50.858;-1.778;2023-02-28T01:00:34;0.9;;;0.6;;
22308;SDS011;11322;50.858;-1.778;2023-02-28T01:05:34;0.9;;;0.9;;
22308;SDS011;11322;50.858;-1.778;2023-02-28T01:10:34;7.0;;;1.2;;
22308;SDS011;11322;50.858;-1.778;2023-02-28T01:15:34;1.4;;;0.85;;
22308;SDS011;11322;50.858;-1.778;2023-02-28T01:20:35;0.65;;;0.5;;
22308;SDS011;11322;50.858;-1.778;2023-02-28T01:25:34;3.75;;;1.5;;
22308;SDS011;11322;50.858;-1.778;2023-02-28T01:30:34;0.85;;;0.85;;
22308;SDS011;11322;50.858;-1.778;2023-02-28T01:35:34;1.1;;;1.05;;
22308;SDS011;11322;50.858;-1.778;2023-02-28T01:40:34;1.85;;;1.0;;
22308;SDS011;11322;50.858;-1.778;2023-02-28T01:45:34;1.5;;;1.2;;
22308;SDS011;11322;50.858;-1.778;2023-02-28T01:50:34;1.6;;;1.45;;
22308;SDS011;11322;50.858;-1.778;2023-02-28T01:55:34;1.1;;;1.05;;
22308;SDS011;11322;50.858;-1.778;2023-02-28T02:00:34;0.35;;;0.3;;
22308;SDS011;11322;50.858;-1.778;2023-02-28T02:05:34;2.35;;;1.75;;
22308;SDS011;11322;50.858;-1.778;2023-02-28T02:10:34;6.7;;;1.6;;
22308;SDS011;11322;50.858;-1.778;2023-02-28T02:15:34;1.05;;;0.55;;
22308;SDS011;11322;50.858;-1.778;2023-02-28T02:20:42;2.65;;;1.5;;
22308;SDS011;11322;50.858;-1.778;2023-02-28T02:25:34;2.95;;;1.8;;
22308;SDS011;11322;50.858;-1.778;2023-02-28T02:30:43;2.05;;;1.85;;
22308;SDS011;11322;50.858;-1.778;2023-02-28T02:35:35;1.45;;;1.0;;
22308;SDS011;11322;50.858;-1.778;2023-02-28T02:40:35;2.1;;;1.05;;
22308;SDS011;11322;50.858;-1.778;2023-02-28T02:45:34;5.0;;;2.05;;
22308;SDS011;11322;50.858;-1.778;2023-02-28T02:50:34;1.25;;;1.2;;
22308;SDS011;11322;50.858;-1.778;2023-02-28T02:55:34;2.6;;;1.25;;
22308;SDS011;11322;50.858;-1.778;2023-02-28T03:00:34;2.6;;;1.5;;
22308;SDS011;11322;50.858;-1.778;2023-02-28T03:05:35;1.05;;;0.8;;
22308;SDS011;11322;50.858;-1.778;2023-02-28T03:10:35;4.2;;;1.75;;
22308;SDS011;11322;50.858;-1.778;2023-02-28T03:15:36;0.3;;;0.3;;
22308;SDS011;11322;50.858;-1.778;2023-02-28T03:20:35;1.7;;;1.05;;
22308;SDS011;11322;50.858;-1.778;2023-02-28T03:25:36;1.7;;;0.35;;
22308;SDS011;11322;50.858;-1.778;2023-02-28T03:30:36;0.2;;;0.2;;
22308;SDS011;11322;50.858;-1.778;2023-02-28T03:35:34;0.6;;;0.6;;
22308;SDS011;11322;50.858;-1.778;2023-02-28T03:40:34;0.55;;;0.55;;
22308;SDS011;11322;50.858;-1.778;2023-02-28T03:45:35;0.35;;;0.35;;
22308;SDS011;11322;50.858;-1.778;2023-02-28T03:50:34;0.5;;;0.5;;
22308;SDS011;11322;50.858;-1.778;2023-02-28T03:55:34;2.4;;;1.5;;
22308;SDS011;11322;50.858;-1.778;2023-02-28T04:00:39;0.6;;;0.45;;
22308;SDS011;11322;50.858;-1.778;2023-02-28T04:05:34;0.4;;;0.4;;
22308;SDS011;11322;50.858;-1.778;2023-02-28T04:05:56;0.4;;;0.4;;
22308;SDS011;11322;50.858;-1.778;2023-02-28T04:10:34;0.8;;;0.8;;
22308;SDS011;11322;50.858;-1.778;2023-02-28T04:15:34;0.75;;;0.75;;
22308;SDS011;11322;50.858;-1.778;2023-02-28T04:20:34;0.35;;;0.35;;
22308;SDS011;11322;50.858;-1.778;2023-02-28T04:25:34;0.55;;;0.55;;
22308;SDS011;11322;50.858;-1.778;2023-02-28T04:30:34;0.65;;;0.65;;
22308;SDS011;11322;50.858;-1.778;2023-02-28T04:35:34;0.8;;;0.8;;
22308;SDS011;11322;50.858;-1.778;2023-02-28T04:40:35;5.6;;;1.75;;
22308;SDS011;11322;50.858;-1.778;2023-02-28T04:45:34;0.6;;;0.6;;
22308;SDS011;11322;50.858;-1.778;2023-02-28T04:50:34;2.25;;;0.8;;
22308;SDS011;11322;50.858;-1.778;2023-02-28T04:55:34;0.85;;;0.85;;
22308;SDS011;11322;50.858;-1.778;2023-02-28T05:00:34;1.9;;;1.0;;
22308;SDS011;11322;50.858;-1.778;2023-02-28T05:05:34;0.3;;;0.3;;
22308;SDS011;11322;50.858;-1.778;2023-02-28T05:10:34;0.6;;;0.6;;
22308;SDS011;11322;50.858;-1.778;2023-02-28T05:15:34;2.3;;;1.2;;
22308;SDS011;11322;50.858;-1.778;2023-02-28T05:20:34;0.85;;;0.85;;
22308;SDS011;11322;50.858;-1.778;2023-02-28T05:25:39;0.35;;;0.35;;
22308;SDS011;11322;50.858;-1.778;2023-02-28T05:30:34;1.05;;;0.8;;
22308;SDS011;11322;50.858;-1.778;2023-02-28T05:35:34;0.25;;;0.25;;
22308;SDS011;11322;50.858;-1.778;2023-02-28T05:40:34;0.85;;;0.85;;
22308;SDS011;11322;50.858;-1.778;2023-02-28T05:45:34;4.25;;;1.2;;
22308;SDS011;11322;50.858;-1.778;2023-02-28T05:50:34;1.1;;;1.0;;
22308;SDS011;11322;50.858;-1.778;2023-02-28T05:55:34;0.75;;;0.75;;
22308;SDS011;11322;50.858;-1.778;2023-02-28T06:00:34;2.0;;;1.3;;
22308;SDS011;11322;50.858;-1.778;2023-02-28T06:05:34;2.0;;;1.6;;
22308;SDS011;11322;50.858;-1.778;2023-02-28T06:10:34;5.15;;;1.35;;
22308;SDS011;11322;50.858;-1.778;2023-02-28T06:15:34;3.7;;;2.35;;
22308;SDS011;11322;50.858;-1.778;2023-02-28T06:20:34;2.0;;;1.7;;
22308;SDS011;11322;50.858;-1.778;2023-02-28T06:25:34;0.85;;;0.85;;
22308;SDS011;11322;50.858;-1.778;2023-02-28T06:30:34;2.6;;;1.9;;
22308;SDS011;11322;50.858;-1.778;2023-02-28T06:35:34;0.85;;;0.85;;
22308;SDS011;11322;50.858;-1.778;2023-02-28T06:40:35;1.45;;;0.9;;
22308;SDS011;11322;50.858;-1.778;2023-02-28T06:45:35;0.2;;;0.2;;
22308;SDS011;11322;50.858;-1.778;2023-02-28T06:50:35;0.5;;;0.5;;
22308;SDS011;11322;50.858;-1.778;2023-02-28T06:55:34;0.55;;;0.55;;
22308;SDS011;11322;50.858;-1.778;2023-02-28T07:00:34;0.5;;;0.5;;
22308;SDS011;11322;50.858;-1.778;2023-02-28T07:05:34;2.1;;;0.5;;
22308;SDS011;11322;50.858;-1.778;2023-02-28T07:10:34;2.1;;;1.8;;
22308;SDS011;11322;50.858;-1.778;2023-02-28T07:15:34;1.55;;;1.5;;
22308;SDS011;11322;50.858;-1.778;2023-02-28T07:20:34;3.2;;;2.1;;
22308;SDS011;11322;50.858;-1.778;2023-02-28T07:25:34;1.6;;;1.5;;
22308;SDS011;11322;50.858;-1.778;2023-02-28T07:30:34;2.85;;;1.75;;
22308;SDS011;11322;50.858;-1.778;2023-02-28T07:35:34;3.5;;;1.95;;
22308;SDS011;11322;50.858;-1.778;2023-02-28T07:40:34;1.3;;;1.25;;
22308;SDS011;11322;50.858;-1.778;2023-02-28T07:45:34;1.85;;;1.75;;
22308;SDS011;11322;50.858;-1.778;2023-02-28T07:50:34;3.6;;;1.4;;
22308;SDS011;11322;50.858;-1.778;2023-02-28T07:55:34;1.8;;;0.75;;
22308;SDS011;11322;50.858;-1.778;2023-02-28T08:00:34;1.75;;;1.1;;
22308;SDS011;11322;50.858;-1.778;2023-02-28T08:05:37;2.65;;;1.2;;
22308;SDS011;11322;50.858;-1.778;2023-02-28T08:10:34;2.7;;;1.6;;
22308;SDS011;11322;50.858;-1.778;2023-02-28T08:15:34;3.35;;;3.0;;
22308;SDS011;11322;50.858;-1.778;2023-02-28T08:20:34;4.7;;;2.4;;
22308;SDS011;11322;50.858;-1.778;2023-02-28T08:25:34;8.75;;;4.0;;
22308;SDS011;11322;50.858;-1.778;2023-02-28T08:30:39;3.6;;;2.8;;
22308;SDS011;11322;50.858;-1.778;2023-02-28T08:35:35;3.6;;;3.2;;
22308;SDS011;11322;50.858;-1.778;2023-02-28T08:40:34;9.5;;;4.7;;
22308;SDS011;11322;50.858;-1.778;2023-02-28T08:45:34;6.15;;;2.3;;
22308;SDS011;11322;50.858;-1.778;2023-02-28T08:50:34;3.35;;;2.6;;
22308;SDS011;11322;50.858;-1.778;2023-02-28T08:55:34;11.1;;;4.2;;
22308;SDS011;11322;50.858;-1.778;2023-02-28T09:00:34;17.15;;;4.35;;
22308;SDS011;11322;50.858;-1.778;2023-02-28T09:05:34;6.15;;;2.95;;
22308;SDS011;11322;50.858;-1.778;2023-02-28T09:10:35;10.85;;;4.65;;
22308;SDS011;11322;50.858;-1.778;2023-02-28T09:15:34;3.95;;;2.25;;
22308;SDS011;11322;50.858;-1.778;2023-02-28T09:20:37;2.6;;;2.05;;
22308;SDS011;11322;50.858;-1.778;2023-02-28T09:25:34;12.55;;;4.9;;
22308;SDS011;11322;50.858;-1.778;2023-02-28T09:30:35;7.55;;;2.7;;
22308;SDS011;11322;50.858;-1.778;2023-02-28T09:35:34;1.45;;;1.2;;
22308;SDS011;11322;50.858;-1.778;2023-02-28T09:40:36;9.3;;;3.75;;
22308;SDS011;11322;50.858;-1.778;2023-02-28T09:45:35;4.9;;;2.55;;
22308;SDS011;11322;50.858;-1.778;2023-02-28T09:50:35;1.6;;;1.5;;
22308;SDS011;11322;50.858;-1.778;2023-02-28T09:55:37;3.3;;;2.35;;
22308;SDS011;11322;50.858;-1.778;2023-02-28T10:00:35;5.25;;;3.05;;
22308;SDS011;11322;50.858;-1.778;2023-02-28T10:05:35;14.4;;;4.85;;
22308;SDS011;11322;50.858;-1.778;2023-02-28T10:10:36;9.1;;;4.6;;
22308;SDS011;11322;50.858;-1.778;2023-02-28T10:15:35;10.75;;;5.35;;
22308;SDS011;11322;50.858;-1.778;2023-02-28T10:20:35;4.85;;;2.9;;
22308;SDS011;11322;50.858;-1.778;2023-02-28T10:25:35;11.65;;;4.65;;
22308;SDS011;11322;50.858;-1.778;2023-02-28T10:30:34;9.4;;;3.1;;
22308;SDS011;11322;50.858;-1.778;2023-02-28T10:35:34;13.0;;;4.4;;
22308;SDS011;11322;50.858;-1.778;2023-02-28T10:40:34;3.8;;;1.95;;
22308;SDS011;11322;50.858;-1.778;2023-02-28T10:45:35;7.65;;;2.9;;
22308;SDS011;11322;50.858;-1.778;2023-02-28T10:50:36;10.75;;;3.65;;
22308;SDS011;11322;50.858;-1.778;2023-02-28T10:55:35;6.95;;;2.6;;
22308;SDS011;11322;50.858;-1.778;2023-02-28T11:00:34;5.75;;;2.5;;
22308;SDS011;11322;50.858;-1.778;2023-02-28T11:05:35;3.0;;;1.7;;
22308;SDS011;11322;50.858;-1.778;2023-02-28T11:10:34;4.15;;;1.35;;
22308;SDS011;11322;50.858;-1.778;2023-02-28T11:15:35;4.6;;;1.8;;
22308;SDS011;11322;50.858;-1.778;2023-02-28T11:20:35;3.1;;;1.45;;
22308;SDS011;11322;50.858;-1.778;2023-02-28T11:25:35;6.65;;;3.05;;
22308;SDS011;11322;50.858;-1.778;2023-02-28T11:30:35;2.8;;;1.65;;
22308;SDS011;11322;50.858;-1.778;2023-02-28T11:35:36;4.0;;;2.2;;
22308;SDS011;11322;50.858;-1.778;2023-02-28T11:40:38;3.3;;;1.65;;
22308;SDS011;11322;50.858;-1.778;2023-02-28T11:45:41;1.75;;;1.0;;
22308;SDS011;11322;50.858;-1.778;2023-02-28T11:50:42;3.5;;;1.3;;
22308;SDS011;11322;50.858;-1.778;2023-02-28T11:55:35;9.25;;;2.45;;
22308;SDS011;11322;50.858;-1.778;2023-02-28T12:00:40;4.2;;;2.15;;
22308;SDS011;11322;50.858;-1.778;2023-02-28T12:05:36;3.6;;;1.75;;
22308;SDS011;11322;50.858;-1.778;2023-02-28T12:11:51;4.0;;;1.65;;
22308;SDS011;11322;50.858;-1.778;2023-02-28T12:15:45;2.7;;;1.65;;
22308;SDS011;11322;50.858;-1.778;2023-02-28T12:20:41;2.65;;;0.9;;
22308;SDS011;11322;50.858;-1.778;2023-02-28T12:25:39;2.05;;;1.45;;
22308;SDS011;11322;50.858;-1.778;2023-02-28T12:30:35;3.4;;;1.75;;
22308;SDS011;11322;50.858;-1.778;2023-02-28T12:35:36;1.5;;;1.0;;
22308;SDS011;11322;50.858;-1.778;2023-02-28T12:40:40;1.15;;;1.0;;
22308;SDS011;11322;50.858;-1.778;2023-02-28T12:45:39;2.75;;;1.4;;
22308;SDS011;11322;50.858;-1.778;2023-02-28T12:50:34;3.55;;;2.05;;
22308;SDS011;11322;50.858;-1.778;2023-02-28T12:55:37;3.5;;;2.3;;
22308;SDS011;11322;50.858;-1.778;2023-02-28T13:00:35;2.2;;;1.7;;
22308;SDS011;11322;50.858;-1.778;2023-02-28T13:05:39;5.35;;;2.2;;
22308;SDS011;11322;50.858;-1.778;2023-02-28T13:10:38;2.15;;;1.05;;
22308;SDS011;11322;50.858;-1.778;2023-02-28T13:15:34;3.95;;;2.0;;
22308;SDS011;11322;50.858;-1.778;2023-02-28T13:20:35;5.55;;;2.45;;
22308;SDS011;11322;50.858;-1.778;2023-02-28T13:25:53;4.7;;;1.85;;
22308;SDS011;11322;50.858;-1.778;2023-02-28T13:31:02;3.35;;;1.3;;
22308;SDS011;11322;50.858;-1.778;2023-02-28T13:35:36;5.7;;;2.55;;
22308;SDS011;11322;50.858;-1.778;2023-02-28T13:40:34;7.6;;;4.4;;
22308;SDS011;11322;50.858;-1.778;2023-02-28T13:45:34;5.35;;;2.15;;
22308;SDS011;11322;50.858;-1.778;2023-02-28T13:50:35;8.4;;;3.05;;
22308;SDS011;11322;50.858;-1.778;2023-02-28T13:55:35;4.2;;;2.55;;
22308;SDS011;11322;50.858;-1.778;2023-02-28T14:00:37;6.3;;;1.9;;
22308;SDS011;11322;50.858;-1.778;2023-02-28T14:05:34;6.4;;;2.25;;
22308;SDS011;11322;50.858;-1.778;2023-02-28T14:10:35;8.65;;;4.35;;
22308;SDS011;11322;50.858;-1.778;2023-02-28T14:15:38;5.05;;;2.1;;
22308;SDS011;11322;50.858;-1.778;2023-02-28T14:20:34;6.6;;;2.4;;
22308;SDS011;11322;50.858;-1.778;2023-02-28T14:25:35;7.85;;;3.05;;
22308;SDS011;11322;50.858;-1.778;2023-02-28T14:30:51;6.8;;;2.55;;
22308;SDS011;11322;50.858;-1.778;2023-02-28T14:35:42;5.6;;;2.6;;
22308;SDS011;11322;50.858;-1.778;2023-02-28T14:40:34;10.25;;;4.0;;
22308;SDS011;11322;50.858;-1.778;2023-02-28T14:45:35;9.4;;;4.05;;
22308;SDS011;11322;50.858;-1.778;2023-02-28T14:50:39;11.55;;;3.55;;
22308;SDS011;11322;50.858;-1.778;2023-02-28T14:55:35;7.55;;;3.25;;
22308;SDS011;11322;50.858;-1.778;2023-02-28T15:00:35;5.95;;;2.85;;
22308;SDS011;11322;50.858;-1.778;2023-02-28T15:05:35;12.3;;;4.55;;
22308;SDS011;11322;50.858;-1.778;2023-02-28T15:10:34;9.1;;;2.8;;
22308;SDS011;11322;50.858;-1.778;2023-02-28T15:15:39;9.6;;;3.6;;
22308;SDS011;11322;50.858;-1.778;2023-02-28T15:20:35;7.1;;;2.55;;
22308;SDS011;11322;50.858;-1.778;2023-02-28T15:25:35;3.3;;;2.3;;
22308;SDS011;11322;50.858;-1.778;2023-02-28T15:30:35;4.2;;;2.0;;
22308;SDS011;11322;50.858;-1.778;2023-02-28T15:35:34;6.2;;;3.1;;
22308;SDS011;11322;50.858;-1.778;2023-02-28T15:40:41;5.2;;;2.8;;
22308;SDS011;11322;50.858;-1.778;2023-02-28T15:45:36;7.2;;;2.75;;
22308;SDS011;11322;50.858;-1.778;2023-02-28T15:50:34;4.85;;;2.6;;
22308;SDS011;11322;50.858;-1.778;2023-02-28T15:55:34;4.95;;;2.45;;
22308;SDS011;11322;50.858;-1.778;2023-02-28T16:00:34;6.65;;;3.05;;
22308;SDS011;11322;50.858;-1.778;2023-02-28T16:05:34;3.35;;;2.15;;
22308;SDS011;11322;50.858;-1.778;2023-02-28T16:10:34;3.8;;;2.1;;
22308;SDS011;11322;50.858;-1.778;2023-02-28T16:15:35;11.35;;;3.45;;
22308;SDS011;11322;50.858;-1.778;2023-02-28T16:20:34;5.8;;;2.35;;
22308;SDS011;11322;50.858;-1.778;2023-02-28T16:25:35;8.5;;;3.6;;
22308;SDS011;11322;50.858;-1.778;2023-02-28T16:30:34;5.3;;;2.9;;
22308;SDS011;11322;50.858;-1.778;2023-02-28T16:35:35;7.8;;;3.05;;
22308;SDS011;11322;50.858;-1.778;2023-02-28T16:40:35;7.3;;;3.35;;
22308;SDS011;11322;50.858;-1.778;2023-02-28T16:45:35;9.35;;;3.6;;
22308;SDS011;11322;50.858;-1.778;2023-02-28T16:50:34;10.7;;;3.7;;
22308;SDS011;11322;50.858;-1.778;2023-02-28T16:55:34;6.65;;;3.6;;
22308;SDS011;11322;50.858;-1.778;2023-02-28T17:00:34;8.4;;;4.35;;
22308;SDS011;11322;50.858;-1.778;2023-02-28T17:05:35;5.05;;;2.55;;
22308;SDS011;11322;50.858;-1.778;2023-02-28T17:10:34;3.05;;;2.0;;
22308;SDS011;11322;50.858;-1.778;2023-02-28T17:15:34;7.85;;;4.05;;
22308;SDS011;11322;50.858;-1.778;2023-02-28T17:20:34;4.4;;;2.55;;
22308;SDS011;11322;50.858;-1.778;2023-02-28T17:25:34;3.95;;;2.05;;
22308;SDS011;11322;50.858;-1.778;2023-02-28T17:30:34;5.65;;;4.1;;
22308;SDS011;11322;50.858;-1.778;2023-02-28T17:35:34;4.65;;;2.7;;
22308;SDS011;11322;50.858;-1.778;2023-02-28T17:40:34;5.55;;;3.55;;
22308;SDS011;11322;50.858;-1.778;2023-02-28T17:45:35;21.95;;;7.2;;
22308;SDS011;11322;50.858;-1.778;2023-02-28T17:50:34;27.45;;;9.25;;
22308;SDS011;11322;50.858;-1.778;2023-02-28T17:55:35;74.9;;;16.3;;
22308;SDS011;11322;50.858;-1.778;2023-02-28T18:00:34;21.1;;;10.85;;
22308;SDS011;11322;50.858;-1.778;2023-02-28T18:05:35;15.6;;;5.6;;
22308;SDS011;11322;50.858;-1.778;2023-02-28T18:10:34;7.15;;;3.2;;
22308;SDS011;11322;50.858;-1.778;2023-02-28T18:15:34;7.35;;;3.65;;
22308;SDS011;11322;50.858;-1.778;2023-02-28T18:20:34;8.7;;;4.4;;
22308;SDS011;11322;50.858;-1.778;2023-02-28T18:25:34;9.75;;;4.85;;
22308;SDS011;11322;50.858;-1.778;2023-02-28T18:30:39;13.7;;;4.75;;
22308;SDS011;11322;50.858;-1.778;2023-02-28T18:35:34;5.35;;;3.0;;
22308;SDS011;11322;50.858;-1.778;2023-02-28T18:40:34;7.85;;;3.95;;
22308;SDS011;11322;50.858;-1.778;2023-02-28T18:45:35;6.55;;;3.0;;
22308;SDS011;11322;50.858;-1.778;2023-02-28T18:50:46;11.05;;;5.6;;
22308;SDS011;11322;50.858;-1.778;2023-02-28T18:55:34;6.1;;;4.05;;
22308;SDS011;11322;50.858;-1.778;2023-02-28T19:00:34;5.4;;;3.0;;
22308;SDS011;11322;50.858;-1.778;2023-02-28T19:05:39;7.7;;;2.55;;
22308;SDS011;11322;50.858;-1.778;2023-02-28T19:10:36;8.7;;;2.9;;
22308;SDS011;11322;50.858;-1.778;2023-02-28T19:15:34;7.4;;;3.5;;
22308;SDS011;11322;50.858;-1.778;2023-02-28T19:20:35;10.35;;;3.8;;
22308;SDS011;11322;50.858;-1.778;2023-02-28T19:25:34;8.05;;;3.35;;
22308;SDS011;11322;50.858;-1.778;2023-02-28T19:30:34;5.6;;;2.45;;
22308;SDS011;11322;50.858;-1.778;2023-02-28T19:35:34;7.75;;;3.05;;
22308;SDS011;11322;50.858;-1.778;2023-02-28T19:40:34;6.6;;;3.3;;
22308;SDS011;11322;50.858;-1.778;2023-02-28T19:45:35;4.95;;;2.5;;
22308;SDS011;11322;50.858;-1.778;2023-02-28T19:50:34;3.75;;;1.95;;
22308;SDS011;11322;50.858;-1.778;2023-02-28T19:55:34;5.5;;;2.25;;
22308;SDS011;11322;50.858;-1.778;2023-02-28T20:00:34;3.3;;;2.1;;
22308;SDS011;11322;50.858;-1.778;2023-02-28T20:05:34;1.3;;;0.8;;
22308;SDS011;11322;50.858;-1.778;2023-02-28T20:10:34;4.35;;;1.4;;
22308;SDS011;11322;50.858;-1.778;2023-02-28T20:15:36;3.6;;;1.65;;
22308;SDS011;11322;50.858;-1.778;2023-02-28T20:20:34;7.05;;;3.1;;
22308;SDS011;11322;50.858;-1.778;2023-02-28T20:25:37;2.15;;;1.3;;
22308;SDS011;11322;50.858;-1.778;2023-02-28T20:30:34;2.05;;;1.4;;
22308;SDS011;11322;50.858;-1.778;2023-02-28T20:35:34;2.6;;;1.75;;
22308;SDS011;11322;50.858;-1.778;2023-02-28T20:40:35;2.1;;;1.2;;
22308;SDS011;11322;50.858;-1.778;2023-02-28T20:45:34;2.5;;;1.4;;
22308;SDS011;11322;50.858;-1.778;2023-02-28T20:50:34;0.6;;;0.6;;
22308;SDS011;11322;50.858;-1.778;2023-02-28T20:55:34;2.55;;;0.9;;
22308;SDS011;11322;50.858;-1.778;2023-02-28T21:00:34;2.2;;;1.2;;
22308;SDS011;11322;50.858;-1.778;2023-02-28T21:05:34;5.1;;;2.7;;
22308;SDS011;11322;50.858;-1.778;2023-02-28T21:10:34;2.95;;;1.35;;
22308;SDS011;11322;50.858;-1.778;2023-02-28T21:15:36;3.85;;;1.35;;
22308;SDS011;11322;50.858;-1.778;2023-02-28T21:20:34;1.2;;;1.1;;
22308;SDS011;11322;50.858;-1.778;2023-02-28T21:25:34;1.85;;;0.7;;
22308;SDS011;11322;50.858;-1.778;2023-02-28T21:30:35;1.1;;;0.7;;
22308;SDS011;11322;50.858;-1.778;2023-02-28T21:35:34;2.15;;;0.9;;
22308;SDS011;11322;50.858;-1.778;2023-02-28T21:40:34;0.85;;;0.8;;
22308;SDS011;11322;50.858;-1.778;2023-02-28T21:45:34;0.95;;;0.75;;
22308;SDS011;11322;50.858;-1.778;2023-02-28T21:50:35;0.7;;;0.7;;
22308;SDS011;11322;50.858;-1.778;2023-02-28T21:55:34;1.2;;;0.65;;
22308;SDS011;11322;50.858;-1.778;2023-02-28T22:00:34;2.0;;;1.05;;
22308;SDS011;11322;50.858;-1.778;2023-02-28T22:05:34;1.2;;;1.05;;
22308;SDS011;11322;50.858;-1.778;2023-02-28T22:10:34;4.65;;;1.85;;
22308;SDS011;11322;50.858;-1.778;2023-02-28T22:15:34;7.1;;;3.2;;
22308;SDS011;11322;50.858;-1.778;2023-02-28T22:20:34;4.9;;;1.8;;
22308;SDS011;11322;50.858;-1.778;2023-02-28T22:25:35;7.05;;;1.25;;
22308;SDS011;11322;50.858;-1.778;2023-02-28T22:30:34;2.2;;;1.85;;
22308;SDS011;11322;50.858;-1.778;2023-02-28T22:35:34;4.15;;;2.2;;
22308;SDS011;11322;50.858;-1.778;2023-02-28T22:40:34;5.25;;;2.8;;
22308;SDS011;11322;50.858;-1.778;2023-02-28T22:45:34;2.4;;;1.8;;
22308;SDS011;11322;50.858;-1.778;2023-02-28T22:50:34;0.6;;;0.5;;
22308;SDS011;11322;50.858;-1.778;2023-02-28T22:55:34;1.55;;;1.0;;
22308;SDS011;11322;50.858;-1.778;2023-02-28T23:00:34;2.75;;;1.8;;
22308;SDS011;11322;50.858;-1.778;2023-02-28T23:05:34;3.4;;;1.2;;
22308;SDS011;11322;50.858;-1.778;2023-02-28T23:10:34;1.45;;;1.35;;
22308;SDS011;11322;50.858;-1.778;2023-02-28T23:15:34;1.2;;;0.95;;
22308;SDS011;11322;50.858;-1.778;2023-02-28T23:20:34;1.6;;;1.5;;
22308;SDS011;11322;50.858;-1.778;2023-02-28T23:25:34;3.75;;;2.5;;
22308;SDS011;11322;50.858;-1.778;2023-02-28T23:30:34;2.8;;;2.0;;
22308;SDS011;11322;50.858;-1.778;2023-02-28T23:35:34;2.45;;;2.2;;
22308;SDS011;11322;50.858;-1.778;2023-02-28T23:40:40;4.85;;;1.9;;
22308;SDS011;11322;50.858;-1.778;2023-02-28T23:45:34;3.4;;;2.8;;
22308;SDS011;11322;50.858;-1.778;2023-02-28T23:50:36;3.15;;;2.85;;
22308;SDS011;11322;50.858;-1.778;2023-02-28T23:55:34;8.25;;;3.85;;
